createdAt,value
2022-11-05T00:00:58.180Z,16.98
2022-11-05T00:03:43.168Z,13.10
2022-11-05T00:06:29.345Z,15.38
2022-11-05T00:09:18.737Z,17.40
2022-11-05T00:12:03.578Z,11.32
2022-11-05T00:14:48.432Z,17.30
2022-11-05T00:17:14.883Z,13.30
2022-11-05T00:19:41.344Z,16.02
2022-11-05T00:22:26.165Z,10.85
2022-11-05T00:25:11.032Z,15.05
2022-11-05T00:27:37.450Z,12.95
2022-11-05T00:30:07.099Z,15.93
2022-11-05T00:32:33.789Z,15.52
2022-11-05T00:35:00.500Z,12.68
2022-11-05T00:37:28.210Z,12.90
2022-11-05T00:39:54.678Z,15.65
2022-11-05T00:42:39.600Z,15.25
2022-11-05T00:45:07.025Z,10.05
2022-11-05T00:47:52.405Z,21.15
2022-11-05T00:50:21.045Z,15.60
2022-11-05T00:52:55.539Z,14.70
2022-11-05T00:55:29.563Z,14.80
2022-11-05T00:57:57.435Z,18.20
2022-11-05T01:00:26.230Z,16.60
2022-11-05T01:02:52.953Z,11.25
2022-11-05T01:05:19.884Z,9.65
2022-11-05T01:07:46.399Z,20.92
2022-11-05T01:10:12.951Z,26.33
2022-11-05T01:12:39.668Z,17.08
2022-11-05T01:15:06.677Z,17.90
2022-11-05T01:17:33.129Z,24.33
2022-11-05T01:19:59.636Z,20.20
2022-11-05T01:22:26.171Z,19.42
2022-11-05T01:24:52.653Z,15.55
2022-11-05T01:27:19.091Z,20.33
2022-11-05T01:29:45.559Z,14.73
2022-11-05T01:32:12.051Z,15.10
2022-11-05T01:34:38.487Z,15.43
2022-11-05T01:37:05.174Z,18.50
2022-11-05T01:39:31.658Z,18.08
2022-11-05T01:41:58.816Z,13.10
2022-11-05T01:48:43.551Z,14.77
2022-11-05T01:51:13.880Z,17.88
2022-11-05T01:54:10.183Z,18.52
2022-11-05T01:56:53.060Z,16.63
2022-11-05T01:59:25.861Z,19.02
2022-11-05T02:01:54.555Z,17.42
2022-11-05T02:04:33.021Z,15.30
2022-11-05T02:07:02.039Z,18.67
2022-11-05T02:09:46.386Z,16.83
2022-11-05T02:12:14.287Z,14.55
2022-11-05T02:14:40.764Z,17.80
2022-11-05T02:17:16.220Z,21.25
2022-11-05T02:20:07.100Z,13.23
2022-11-05T02:22:51.303Z,14.35
2022-11-05T02:25:39.549Z,14.50
2022-11-05T02:28:26.549Z,15.98
2022-11-05T02:31:04.654Z,17.90
2022-11-05T02:33:45.841Z,19.67
2022-11-05T02:36:25.350Z,15.18
2022-11-05T02:39:00.925Z,16.63
2022-11-05T02:41:38.101Z,15.35
2022-11-05T02:44:26.825Z,13.60
2022-11-05T02:47:12.877Z,9.50
2022-11-05T02:50:11.290Z,17.35
2022-11-05T02:52:42.390Z,14.35
2022-11-05T02:55:27.614Z,12.07
2022-11-05T02:57:54.526Z,17.15
2022-11-05T03:00:49.808Z,10.25
2022-11-05T03:03:51.428Z,18.80
2022-11-05T03:06:42.342Z,15.00
2022-11-05T03:09:50.545Z,17.98
2022-11-05T03:12:35.509Z,18.50
2022-11-05T03:15:27.341Z,20.65
2022-11-05T03:18:22.669Z,24.95
2022-11-05T03:21:19.896Z,23.23
2022-11-05T03:24:14.786Z,27.30
2022-11-05T03:26:50.683Z,18.38
2022-11-05T03:29:23.103Z,25.45
2022-11-05T03:31:52.385Z,28.10
2022-11-05T03:34:24.838Z,24.30
2022-11-05T03:36:55.670Z,26.73
2022-11-05T03:39:28.772Z,27.58
2022-11-05T03:41:57.731Z,19.00
2022-11-05T03:44:29.380Z,23.05
2022-11-05T03:47:02.346Z,24.08
2022-11-05T03:49:45.508Z,24.73
2022-11-05T03:52:18.276Z,22.30
2022-11-05T03:54:46.543Z,24.30
2022-11-05T03:57:19.622Z,22.60
2022-11-05T03:59:49.165Z,17.92
2022-11-05T04:02:18.763Z,16.85
2022-11-05T04:04:46.755Z,20.40
2022-11-05T04:07:31.985Z,18.60
2022-11-05T04:10:17.284Z,16.55
2022-11-05T04:13:02.382Z,26.33
2022-11-05T04:15:51.866Z,20.13
2022-11-05T04:18:18.376Z,18.48
2022-11-05T04:21:03.637Z,21.17
2022-11-05T04:23:48.549Z,23.02
2022-11-05T04:26:15.004Z,24.58
2022-11-05T04:29:03.833Z,16.70
2022-11-05T04:31:34.188Z,21.15
2022-11-05T04:34:00.787Z,15.52
2022-11-05T04:36:27.333Z,18.30
2022-11-05T04:38:53.746Z,14.68
2022-11-05T04:41:20.160Z,21.20
2022-11-05T04:43:46.667Z,17.73
2022-11-05T04:46:13.089Z,23.40
2022-11-05T04:48:39.648Z,22.75
2022-11-05T04:51:06.275Z,16.10
2022-11-05T04:53:32.854Z,11.93
2022-11-05T04:56:14.788Z,9.75
2022-11-05T04:58:41.971Z,14.07
2022-11-05T05:01:13.507Z,27.20
2022-11-05T05:03:40.224Z,20.17
2022-11-05T05:06:07.081Z,11.30
2022-11-05T05:08:33.880Z,21.48
2022-11-05T05:11:04.899Z,18.13
2022-11-05T05:13:31.756Z,26.00
2022-11-05T05:15:58.736Z,24.30
2022-11-05T05:18:26.737Z,19.45
2022-11-05T05:21:16.484Z,11.93
2022-11-05T05:23:43.038Z,25.92
2022-11-05T05:26:09.740Z,13.88
2022-11-05T05:28:36.191Z,20.88
2022-11-05T05:31:02.693Z,16.90
2022-11-05T05:33:29.179Z,21.05
2022-11-05T05:35:59.699Z,15.30
2022-11-05T05:38:26.153Z,22.83
2022-11-05T05:40:57.091Z,16.25
2022-11-05T05:43:23.510Z,18.13
2022-11-05T05:45:49.933Z,24.42
2022-11-05T05:48:16.342Z,9.32
2022-11-05T05:50:42.757Z,8.90
2022-11-05T05:53:09.491Z,18.38
2022-11-05T05:55:36.052Z,14.13
2022-11-05T05:58:02.528Z,24.15
2022-11-05T06:00:29.126Z,14.10
2022-11-05T06:02:56.505Z,24.25
2022-11-05T06:05:22.974Z,21.45
2022-11-05T06:07:58.650Z,20.73
2022-11-05T06:10:25.708Z,11.40
2022-11-05T06:12:52.202Z,20.75
2022-11-05T06:15:18.624Z,19.27
2022-11-05T06:17:45.279Z,14.93
2022-11-05T06:20:14.775Z,19.65
2022-11-05T06:22:41.299Z,18.75
2022-11-05T06:25:08.752Z,20.73
2022-11-05T06:27:36.778Z,15.93
2022-11-05T06:30:04.879Z,23.88
2022-11-05T06:32:31.352Z,21.48
2022-11-05T06:34:57.844Z,20.83
2022-11-05T06:37:24.335Z,23.92
2022-11-05T06:39:50.762Z,19.90
2022-11-05T06:42:18.788Z,13.05
2022-11-05T06:44:45.863Z,26.05
2022-11-05T06:47:12.342Z,18.55
2022-11-05T06:49:38.751Z,24.48
2022-11-05T06:52:05.237Z,14.93
2022-11-05T06:54:31.680Z,23.08
2022-11-05T06:56:58.084Z,20.63
2022-11-05T06:59:24.508Z,17.95
2022-11-05T07:01:51.029Z,20.48
2022-11-05T07:04:17.506Z,19.77
2022-11-05T07:06:43.929Z,18.23
2022-11-05T07:09:10.355Z,16.92
2022-11-05T07:11:36.790Z,15.48
2022-11-05T07:14:03.316Z,17.73
2022-11-05T07:16:29.804Z,20.23
2022-11-05T07:18:56.279Z,20.80
2022-11-05T07:21:22.726Z,26.13
2022-11-05T07:23:49.181Z,20.75
2022-11-05T07:26:15.701Z,20.00
2022-11-05T07:28:42.159Z,21.77
2022-11-05T07:31:08.594Z,18.33
2022-11-05T07:33:36.652Z,21.58
2022-11-05T07:36:03.602Z,19.85
2022-11-05T07:38:30.608Z,22.48
2022-11-05T07:41:00.158Z,25.70
2022-11-05T07:43:26.662Z,19.92
2022-11-05T07:45:53.146Z,22.58
2022-11-05T07:48:19.628Z,19.65
2022-11-05T07:50:46.080Z,14.20
2022-11-05T07:53:14.432Z,21.15
2022-11-05T07:55:42.092Z,22.13
2022-11-05T07:58:10.363Z,25.70
2022-11-05T08:00:36.895Z,24.70
2022-11-05T08:03:16.331Z,21.25
2022-11-05T08:05:46.148Z,25.50
2022-11-05T08:08:18.022Z,21.27
2022-11-05T08:10:44.856Z,14.90
2022-11-05T08:13:13.244Z,18.63
2022-11-05T08:15:40.740Z,15.80
2022-11-05T08:18:15.662Z,15.00
2022-11-05T08:20:43.545Z,20.52
2022-11-05T08:23:10.814Z,19.77
2022-11-05T08:25:37.936Z,22.50
2022-11-05T08:28:07.806Z,20.90
2022-11-05T08:30:35.366Z,18.27
2022-11-05T08:33:08.174Z,17.50
2022-11-05T08:35:36.185Z,9.90
2022-11-05T08:38:05.033Z,26.05
2022-11-05T08:40:35.553Z,23.50
2022-11-05T08:43:03.840Z,21.92
2022-11-05T08:45:31.019Z,19.98
2022-11-05T08:48:07.995Z,12.23
2022-11-05T08:50:35.049Z,20.58
2022-11-05T08:53:01.679Z,17.90
2022-11-05T08:55:28.519Z,14.55
2022-11-05T08:58:03.631Z,18.95
2022-11-05T09:00:33.211Z,19.60
2022-11-05T09:03:01.077Z,17.25
2022-11-05T09:05:29.203Z,17.33
2022-11-05T09:08:00.828Z,22.38
2022-11-05T09:10:28.494Z,16.67
2022-11-05T09:12:55.064Z,14.90
2022-11-05T09:15:23.106Z,17.27
2022-11-05T09:17:49.691Z,19.90
2022-11-05T09:20:16.360Z,17.63
2022-11-05T09:22:43.617Z,19.63
2022-11-05T09:25:10.558Z,16.77
2022-11-05T09:27:37.379Z,15.15
2022-11-05T09:30:05.036Z,14.32
2022-11-05T09:32:32.421Z,13.85
2022-11-05T09:35:01.056Z,15.45
2022-11-05T09:37:28.556Z,17.83
2022-11-05T09:39:55.152Z,17.17
2022-11-05T09:42:26.536Z,18.88
2022-11-05T09:44:59.417Z,14.27
2022-11-05T09:47:39.786Z,14.05
2022-11-05T09:50:16.077Z,16.95
2022-11-05T09:52:42.752Z,12.10
2022-11-05T09:55:27.779Z,14.60
2022-11-05T09:58:00.617Z,18.65
2022-11-05T10:00:29.151Z,13.35
2022-11-05T10:03:04.086Z,9.90
2022-11-05T10:05:33.463Z,12.02
2022-11-05T10:08:23.599Z,16.80
2022-11-05T10:10:55.002Z,13.50
2022-11-05T10:13:42.658Z,12.93
2022-11-05T10:16:25.948Z,17.10
2022-11-05T10:18:59.135Z,13.93
2022-11-05T10:21:51.473Z,16.70
2022-11-05T10:24:20.115Z,12.02
2022-11-05T10:26:49.245Z,14.30
2022-11-05T10:29:25.826Z,12.30
2022-11-05T10:31:56.656Z,16.05
2022-11-05T10:34:28.721Z,11.85
2022-11-05T10:36:55.295Z,12.77
2022-11-05T10:39:23.360Z,10.10
2022-11-05T10:42:14.464Z,10.43
2022-11-05T10:44:52.451Z,9.93
2022-11-05T10:47:56.341Z,9.88
2022-11-05T10:50:30.887Z,11.32
2022-11-05T10:53:06.797Z,9.73
2022-11-05T10:55:38.577Z,12.60
2022-11-05T10:58:17.046Z,6.93
2022-11-05T11:00:45.752Z,9.20
2022-11-05T11:03:45.858Z,8.98
2022-11-05T11:06:27.666Z,8.88
2022-11-05T11:08:57.899Z,11.02
2022-11-05T11:11:38.731Z,11.25
2022-11-05T11:14:22.213Z,11.88
2022-11-05T11:16:51.188Z,7.30
2022-11-05T11:19:23.655Z,10.38
2022-11-05T11:22:05.403Z,16.48
2022-11-05T11:24:45.172Z,10.40
2022-11-05T11:27:17.124Z,9.23
2022-11-05T11:29:49.577Z,6.25
2022-11-05T11:32:19.335Z,7.40
2022-11-05T11:34:51.034Z,8.48
2022-11-05T11:37:24.156Z,12.25
2022-11-05T11:39:56.644Z,13.23
2022-11-05T11:42:35.855Z,8.20
2022-11-05T11:45:17.392Z,10.52
2022-11-05T11:47:46.716Z,10.38
2022-11-05T11:50:31.364Z,10.88
2022-11-05T11:53:19.664Z,12.82
2022-11-05T11:55:59.817Z,10.20
2022-11-05T11:58:44.490Z,10.90
2022-11-05T12:01:26.310Z,13.63
2022-11-05T12:04:28.814Z,8.45
2022-11-05T12:07:20.276Z,8.68
2022-11-05T12:09:56.016Z,11.52
2022-11-05T12:12:34.344Z,9.68
2022-11-05T12:15:24.487Z,8.25
2022-11-05T12:20:40.702Z,12.48
2022-11-05T12:23:44.398Z,14.73
2022-11-05T12:26:26.202Z,4.28
2022-11-05T12:29:18.753Z,10.77
2022-11-05T12:32:04.197Z,12.38
2022-11-05T12:34:46.652Z,12.77
2022-11-05T12:37:51.694Z,7.68
2022-11-05T12:40:39.220Z,6.38
2022-11-05T12:43:24.103Z,10.50
2022-11-05T12:46:05.822Z,7.03
2022-11-05T12:48:53.816Z,8.27
2022-11-05T12:51:32.533Z,5.85
2022-11-05T12:57:52.207Z,8.70
2022-11-05T13:04:30.202Z,9.95
2022-11-05T13:07:58.025Z,10.43
2022-11-05T13:11:10.297Z,7.30
2022-11-05T13:13:42.782Z,10.48
2022-11-05T13:16:19.424Z,7.90
2022-11-05T13:18:56.964Z,6.70
2022-11-05T13:21:26.211Z,8.05
2022-11-05T13:24:04.005Z,12.90
2022-11-05T13:26:39.824Z,11.20
2022-11-05T13:29:17.972Z,8.68
2022-11-05T13:31:53.230Z,4.53
2022-11-05T13:34:19.829Z,5.43
2022-11-05T13:37:13.985Z,8.05
2022-11-05T13:39:54.767Z,5.53
2022-11-05T13:42:39.648Z,6.15
2022-11-05T13:45:16.696Z,10.73
2022-11-05T13:47:50.131Z,5.95
2022-11-05T13:51:07.822Z,7.72
2022-11-05T13:54:05.216Z,5.55
2022-11-05T13:56:37.880Z,9.88
2022-11-05T14:02:13.450Z,12.85
2022-11-05T14:04:46.924Z,6.80
2022-11-05T14:07:23.180Z,5.78
2022-11-05T14:09:56.753Z,3.42
2022-11-05T14:12:31.103Z,3.67
2022-11-05T14:15:05.187Z,10.75
2022-11-05T14:17:56.424Z,8.20
2022-11-05T14:20:41.855Z,11.35
2022-11-05T14:23:17.580Z,5.95
2022-11-05T14:28:35.491Z,6.57
2022-11-05T14:31:02.923Z,10.40
2022-11-05T14:33:38.079Z,9.02
2022-11-05T14:36:30.412Z,9.80
2022-11-05T14:39:12.201Z,11.38
2022-11-05T14:42:14.698Z,6.97
2022-11-05T14:45:20.088Z,9.80
2022-11-05T14:47:56.144Z,5.45
2022-11-05T14:50:31.026Z,7.95
2022-11-05T14:53:03.121Z,7.10
2022-11-05T14:56:07.805Z,8.40
2022-11-05T14:59:21.143Z,6.85
2022-11-05T15:02:01.131Z,16.98
2022-11-05T15:04:33.547Z,12.45
2022-11-05T15:07:02.204Z,5.85
2022-11-05T15:09:53.124Z,11.52
2022-11-05T15:12:32.511Z,8.20
2022-11-05T15:15:01.087Z,10.18
2022-11-05T15:17:30.141Z,4.72
2022-11-05T15:20:13.574Z,6.25
2022-11-05T15:22:43.641Z,8.77
2022-11-05T15:25:28.566Z,8.13
2022-11-05T15:27:57.986Z,6.95
2022-11-05T15:30:24.744Z,10.07
2022-11-05T15:32:52.143Z,5.32
2022-11-05T15:35:27.259Z,9.07
2022-11-05T15:38:01.837Z,11.15
2022-11-05T15:40:32.468Z,6.93
2022-11-05T15:43:22.149Z,5.18
2022-11-05T15:46:03.263Z,6.88
2022-11-05T15:48:30.149Z,5.15
2022-11-05T15:50:57.269Z,5.45
2022-11-05T15:56:58.893Z,8.52
2022-11-05T15:59:27.455Z,4.63
2022-11-05T16:02:34.588Z,8.35
2022-11-05T16:05:09.466Z,14.50
2022-11-05T16:10:27.935Z,11.90
2022-11-05T16:12:54.401Z,12.68
2022-11-05T16:15:32.437Z,8.25
2022-11-05T16:18:00.243Z,19.50
2022-11-05T16:20:28.647Z,10.48
2022-11-05T16:22:58.366Z,9.82
2022-11-05T16:25:37.694Z,7.38
2022-11-05T16:28:06.454Z,6.85
2022-11-05T16:30:32.906Z,10.95
2022-11-05T16:33:05.016Z,13.02
2022-11-05T16:35:31.489Z,4.72
2022-11-05T16:38:00.927Z,4.85
2022-11-05T16:40:27.492Z,5.32
2022-11-05T16:42:54.088Z,11.52
2022-11-05T16:45:23.926Z,8.10
2022-11-05T16:47:50.868Z,8.23
2022-11-05T16:50:26.710Z,8.18
2022-11-05T16:52:53.511Z,8.85
2022-11-05T16:55:20.466Z,13.35
2022-11-05T16:57:50.945Z,7.88
2022-11-05T17:00:20.100Z,7.65
2022-11-05T17:02:47.074Z,5.15
2022-11-05T17:05:30.449Z,8.50
2022-11-05T17:07:57.935Z,8.23
2022-11-05T17:10:25.546Z,5.70
2022-11-05T17:12:52.201Z,14.65
2022-11-05T17:15:25.034Z,6.90
2022-11-05T17:17:53.579Z,21.70
2022-11-05T17:20:27.543Z,13.30
2022-11-05T17:22:54.740Z,17.92
2022-11-05T17:25:21.505Z,14.68
2022-11-05T17:27:48.448Z,12.02
2022-11-05T17:30:15.197Z,11.95
2022-11-05T17:32:41.810Z,11.30
2022-11-05T17:35:08.807Z,10.65
2022-11-05T17:37:35.319Z,9.23
2022-11-05T17:40:03.944Z,15.02
2022-11-05T17:42:30.391Z,9.90
2022-11-05T17:44:57.317Z,8.32
2022-11-05T17:47:25.556Z,19.20
2022-11-05T17:49:51.990Z,12.65
2022-11-05T17:52:18.434Z,15.10
2022-11-05T17:54:44.863Z,11.85
2022-11-05T17:57:11.341Z,9.82
2022-11-05T17:59:37.777Z,11.77
2022-11-05T18:02:04.585Z,16.73
2022-11-05T18:04:32.419Z,13.82
2022-11-05T18:06:58.845Z,15.15
2022-11-05T18:09:25.321Z,12.13
2022-11-05T18:11:51.763Z,12.05
2022-11-05T18:14:23.752Z,11.88
2022-11-05T18:16:51.648Z,17.95
2022-11-05T18:19:18.131Z,17.38
2022-11-05T18:21:44.602Z,13.90
2022-11-05T18:24:11.047Z,17.10
2022-11-05T18:26:37.466Z,15.32
2022-11-05T18:29:05.770Z,10.68
2022-11-05T18:31:32.389Z,9.90
2022-11-05T18:33:59.929Z,22.80
2022-11-05T18:36:28.199Z,17.88
2022-11-05T18:38:56.686Z,11.45
2022-11-05T18:41:23.449Z,13.57
2022-11-05T18:43:50.269Z,9.68
2022-11-05T18:46:36.377Z,14.45
2022-11-05T18:49:03.661Z,14.98
2022-11-05T18:51:30.481Z,10.85
2022-11-05T18:53:58.384Z,10.95
2022-11-05T18:56:24.921Z,11.43
2022-11-05T18:59:14.580Z,15.98
2022-11-05T19:01:40.484Z,12.30
2022-11-05T19:04:07.156Z,13.68
2022-11-05T19:06:33.925Z,17.00
2022-11-05T19:09:00.346Z,13.88
2022-11-05T19:11:27.012Z,13.35
2022-11-05T19:13:53.859Z,11.75
2022-11-05T19:16:27.074Z,14.20
2022-11-05T19:18:53.598Z,17.13
2022-11-05T19:21:23.025Z,23.38
2022-11-05T19:23:50.568Z,10.88
2022-11-05T19:26:25.633Z,10.23
2022-11-05T19:28:55.086Z,10.80
2022-11-05T19:31:23.545Z,14.93
2022-11-05T19:33:51.173Z,18.52
2022-11-05T19:36:20.551Z,16.00
2022-11-05T19:38:49.538Z,19.02
2022-11-05T19:41:18.303Z,10.60
2022-11-05T19:43:45.326Z,17.35
2022-11-05T19:46:15.007Z,20.40
2022-11-05T19:48:42.138Z,13.40
2022-11-05T19:51:14.021Z,13.77
2022-11-05T19:53:40.897Z,17.25
2022-11-05T19:56:18.950Z,16.05
2022-11-05T19:58:45.719Z,20.70
2022-11-05T20:01:14.249Z,14.98
2022-11-05T20:03:41.710Z,17.35
2022-11-05T20:06:10.892Z,14.35
2022-11-05T20:08:59.403Z,29.63
2022-11-05T20:11:25.128Z,14.63
2022-11-05T20:13:51.587Z,13.35
2022-11-05T20:16:23.548Z,11.45
2022-11-05T20:18:50.532Z,11.48
2022-11-05T20:21:17.562Z,13.02
2022-11-05T20:23:44.301Z,12.90
2022-11-05T20:26:11.641Z,10.27
2022-11-05T20:28:39.716Z,15.70
2022-11-05T20:31:08.322Z,12.27
2022-11-05T20:33:34.820Z,13.32
2022-11-05T20:36:04.658Z,11.73
2022-11-05T20:38:31.655Z,12.00
2022-11-05T20:40:58.786Z,15.75
2022-11-05T20:43:30.162Z,17.27
2022-11-05T20:45:58.404Z,15.05
2022-11-05T20:48:24.868Z,16.42
2022-11-05T20:50:51.322Z,13.68
2022-11-05T20:53:17.929Z,18.42
2022-11-05T20:55:47.417Z,13.27
2022-11-05T20:58:15.846Z,15.02
2022-11-05T21:00:49.960Z,16.88
2022-11-05T21:03:16.437Z,19.08
2022-11-05T21:05:54.271Z,15.25
2022-11-05T21:08:22.373Z,15.77
2022-11-05T21:10:51.398Z,19.05
2022-11-05T21:13:18.279Z,16.70
2022-11-05T21:15:52.295Z,19.08
2022-11-05T21:18:21.178Z,12.55
2022-11-05T21:20:47.764Z,21.52
2022-11-05T21:23:15.410Z,15.30
2022-11-05T21:25:43.181Z,17.70
2022-11-05T21:28:11.555Z,16.58
2022-11-05T21:30:42.000Z,19.67
2022-11-05T21:33:09.112Z,15.63
2022-11-05T21:35:39.935Z,15.73
2022-11-05T21:38:06.384Z,14.20
2022-11-05T21:40:32.851Z,19.35
2022-11-05T21:42:59.276Z,19.30
2022-11-05T21:45:26.035Z,15.15
2022-11-05T21:47:52.474Z,19.52
2022-11-05T21:50:21.877Z,13.63
2022-11-05T21:53:07.275Z,20.10
2022-11-05T21:55:52.144Z,11.10
2022-11-05T21:58:37.618Z,15.27
2022-11-05T22:01:04.163Z,15.90
2022-11-05T22:03:30.612Z,18.70
2022-11-05T22:05:57.272Z,15.60
2022-11-05T22:08:23.864Z,14.32
2022-11-05T22:10:50.304Z,16.08
2022-11-05T22:13:16.720Z,20.83
2022-11-05T22:15:43.162Z,17.80
2022-11-05T22:18:09.769Z,14.93
2022-11-05T22:20:39.695Z,20.20
2022-11-05T22:23:10.876Z,18.20
2022-11-05T22:25:37.882Z,18.10
2022-11-05T22:28:04.510Z,14.68
2022-11-05T22:30:34.564Z,18.52
2022-11-05T22:33:01.432Z,9.65
2022-11-05T22:35:28.873Z,16.73
2022-11-05T22:37:55.684Z,13.38
2022-11-05T22:40:23.940Z,13.43
2022-11-05T22:42:50.752Z,15.18
2022-11-05T22:45:17.189Z,16.98
2022-11-05T22:47:43.744Z,17.77
2022-11-05T22:50:10.442Z,15.98
2022-11-05T22:52:36.909Z,16.77
2022-11-05T22:55:06.036Z,15.45
2022-11-05T22:57:32.473Z,11.90
2022-11-05T22:59:58.889Z,14.25
2022-11-05T23:02:25.443Z,16.98
2022-11-05T23:04:52.191Z,15.18
2022-11-05T23:07:37.356Z,12.60
2022-11-05T23:10:22.748Z,13.93
2022-11-05T23:12:49.253Z,13.52
2022-11-05T23:15:34.238Z,15.25
2022-11-05T23:18:19.734Z,15.07
2022-11-05T23:21:04.484Z,11.35
2022-11-05T23:23:49.364Z,14.40
2022-11-05T23:26:34.107Z,12.48
2022-11-05T23:29:00.560Z,12.38
2022-11-05T23:31:45.482Z,10.98
2022-11-05T23:34:11.944Z,14.10
2022-11-05T23:36:56.764Z,13.75
2022-11-05T23:39:23.201Z,9.88
2022-11-05T23:42:08.030Z,16.13
2022-11-05T23:44:52.975Z,12.38
2022-11-05T23:47:37.829Z,22.40
2022-11-05T23:50:04.482Z,15.70
2022-11-05T23:52:30.917Z,15.00
2022-11-05T23:54:57.324Z,10.73
2022-11-05T23:57:23.769Z,9.82
2022-11-05T23:59:50.225Z,9.95
